Time;durP1;ratioP1;P1;durP2;ratioP2;P2;SDS_P1;SDS_P2;PMS_P1;PMS_P2;Temp;Humidity;BMP_temperature;BMP_pressure;BME280_temperature;BME280_humidity;BME280_pressure;Samples;Min_cycle;Max_cycle;Signal;HPM_P1;HPM_P2
2021/05/31 00:02:20;;;;;;;0.30;0.20;;;;;;;12.95;81.88;100878.31;5038878;28;20466;-51
2021/05/31 00:04:46;;;;;;;0.30;0.20;;;;;;;13.08;81.14;100862.81;5038675;28;20521;-50
2021/05/31 00:07:17;;;;;;;0.30;0.20;;;;;;;13.08;80.95;100861.00;5045249;28;20459;-51
2021/05/31 00:09:47;;;;;;;0.30;0.20;;;;;;;12.87;82.07;100870.50;5045138;28;21012;-49
2021/05/31 00:12:17;;;;;;;0.40;0.30;;;;;;;12.73;82.74;100860.22;5039986;28;20450;-50
2021/05/31 00:14:44;;;;;;;0.30;0.20;;;;;;;12.83;81.62;100857.31;5037742;28;20521;-50
2021/05/31 00:17:12;;;;;;;0.30;0.20;;;;;;;12.75;82.43;100861.09;5042514;28;20841;-50
2021/05/31 00:19:39;;;;;;;0.30;0.20;;;;;;;12.99;82.14;100866.63;5045424;28;20498;-50
2021/05/31 00:22:07;;;;;;;0.40;0.30;;;;;;;13.07;80.65;100856.59;5041340;28;20450;-51
2021/05/31 00:24:34;;;;;;;0.30;0.20;;;;;;;13.04;81.49;100856.69;5037355;28;20447;-51
2021/05/31 00:27:01;;;;;;;0.30;0.20;;;;;;;13.19;80.51;100852.72;5041920;28;20506;-50
2021/05/31 00:29:28;;;;;;;0.30;0.20;;;;;;;13.15;80.59;100859.91;5044268;28;20467;-50
2021/05/31 00:31:57;;;;;;;0.53;0.53;;;;;;;13.20;80.04;100855.34;5040538;28;20450;-51
2021/05/31 00:34:24;;;;;;;2.00;0.87;;;;;;;13.04;81.65;100851.34;5037611;28;20493;-50
2021/05/31 00:36:52;;;;;;;0.30;0.20;;;;;;;13.04;80.33;100854.03;5040489;28;20458;-50
2021/05/31 00:39:20;;;;;;;0.30;0.20;;;;;;;13.13;80.19;100850.19;5044236;28;20525;-51
2021/05/31 00:41:49;;;;;;;0.30;0.20;;;;;;;12.90;81.35;100846.44;5041991;28;20511;-50
2021/05/31 00:44:17;;;;;;;0.30;0.20;;;;;;;13.09;80.80;100843.19;5032778;28;20502;-50
2021/05/31 00:46:44;;;;;;;0.30;0.20;;;;;;;13.01;80.66;100856.75;5042269;28;20462;-50
2021/05/31 00:49:11;;;;;;;0.37;0.27;;;;;;;13.12;80.44;100843.97;5032402;28;20865;-51
2021/05/31 00:51:38;;;;;;;0.40;0.30;;;;;;;13.13;80.15;100845.72;5046773;28;20486;-50
2021/05/31 00:54:04;;;;;;;0.30;0.20;;;;;;;13.38;79.25;100845.88;5028478;28;20482;-51
2021/05/31 00:56:31;;;;;;;0.30;0.20;;;;;;;13.05;79.94;100847.78;5034248;28;20453;-51
2021/05/31 00:58:58;;;;;;;0.30;0.20;;;;;;;13.12;79.92;100843.97;5042212;28;20589;-50
2021/05/31 01:01:24;;;;;;;0.30;0.20;;;;;;;13.04;80.53;100843.34;5040910;28;20447;-50
2021/05/31 01:03:51;;;;;;;0.30;0.20;;;;;;;12.77;81.52;100845.03;5046745;28;20460;-51
2021/05/31 01:06:25;;;;;;;0.30;0.20;;;;;;;12.79;81.65;100851.19;5047969;28;20447;-50
2021/05/31 01:09:32;;;;;;;0.30;0.20;;;;;;;12.90;80.48;100849.09;5043227;28;20471;-50
2021/05/31 01:12:17;;;;;;;0.30;0.20;;;;;;;12.53;82.75;100854.59;5046951;28;20542;-50
2021/05/31 01:14:51;;;;;;;0.40;0.30;;;;;;;12.41;83.37;100846.91;5047398;28;21023;-50
2021/05/31 01:17:33;;;;;;;0.30;0.20;;;;;;;12.38;84.09;100855.00;5041540;28;20447;-51
2021/05/31 01:20:21;;;;;;;0.30;0.20;;;;;;;12.29;83.82;100850.78;5027985;28;20462;-51
2021/05/31 01:22:49;;;;;;;0.30;0.20;;;;;;;12.34;83.92;100858.69;5040527;28;20524;-50
2021/05/31 01:25:27;;;;;;;0.30;0.20;;;;;;;12.14;84.76;100857.41;5044412;28;20474;-50
2021/05/31 01:28:21;;;;;;;0.30;0.20;;;;;;;12.29;83.85;100853.44;5047384;28;20443;-50
2021/05/31 01:30:49;;;;;;;0.30;0.20;;;;;;;12.24;83.84;100855.38;5047426;28;20446;-50
2021/05/31 01:33:19;;;;;;;0.40;0.30;;;;;;;12.12;84.05;100858.34;5043047;28;20453;-50
2021/05/31 01:35:47;;;;;;;0.40;0.40;;;;;;;11.85;85.42;100857.25;5040630;28;21021;-50
2021/05/31 01:38:18;;;;;;;0.40;0.30;;;;;;;11.71;86.53;100859.34;5044288;28;20479;-50
2021/05/31 01:40:47;;;;;;;0.30;0.20;;;;;;;11.22;88.62;100852.47;5047282;28;20766;-50
2021/05/31 01:43:15;;;;;;;0.30;0.20;;;;;;;11.17;88.65;100865.03;5044519;28;20933;-50
2021/05/31 01:45:43;;;;;;;0.30;0.20;;;;;;;11.11;88.74;100857.19;5038836;28;20487;-50
2021/05/31 01:48:11;;;;;;;0.30;0.20;;;;;;;11.00;89.42;100859.19;5042916;28;20487;-50
2021/05/31 01:50:39;;;;;;;0.30;0.20;;;;;;;11.13;88.48;100855.38;5039627;28;21015;-50
2021/05/31 01:53:07;;;;;;;0.30;0.20;;;;;;;10.89;89.38;100854.97;5040407;28;20887;-49
2021/05/31 01:55:34;;;;;;;0.30;0.20;;;;;;;10.84;89.99;100854.22;5047075;28;20488;-49
2021/05/31 01:58:01;;;;;;;0.30;0.20;;;;;;;10.82;90.09;100847.13;5026141;28;20459;-50
2021/05/31 02:00:28;;;;;;;0.30;0.20;;;;;;;10.69;90.53;100851.84;5046476;28;20509;-50
2021/05/31 02:02:56;;;;;;;0.30;0.20;;;;;;;10.53;91.78;100855.69;5045308;28;20447;-49
2021/05/31 02:05:22;;;;;;;0.30;0.20;;;;;;;10.53;91.82;100853.91;5040153;28;20871;-50
2021/05/31 02:07:49;;;;;;;0.30;0.20;;;;;;;10.28;92.56;100860.59;5041078;28;20451;-50
2021/05/31 02:10:15;;;;;;;0.30;0.30;;;;;;;10.35;92.04;100857.81;5046806;28;20534;-50
2021/05/31 02:12:46;;;;;;;0.30;0.20;;;;;;;10.11;93.06;100860.88;5046204;28;20504;-51
2021/05/31 02:15:17;;;;;;;0.30;0.20;;;;;;;10.08;93.85;100852.97;5026844;28;20487;-50
2021/05/31 02:18:02;;;;;;;0.30;0.30;;;;;;;10.07;93.87;100854.75;5039983;28;20444;-50
2021/05/31 02:20:31;;;;;;;0.30;0.20;;;;;;;10.10;93.74;100857.34;5043868;28;20471;-50
2021/05/31 02:23:01;;;;;;;0.30;0.20;;;;;;;9.99;94.30;100853.97;5046665;28;20452;-50
2021/05/31 02:25:28;;;;;;;0.30;0.20;;;;;;;9.88;94.82;100855.09;5043915;28;20450;-51
2021/05/31 02:27:57;;;;;;;0.30;0.20;;;;;;;10.08;93.33;100853.84;5039494;28;20995;-50
2021/05/31 02:30:25;;;;;;;0.30;0.20;;;;;;;9.79;94.81;100856.09;5041237;28;20802;-50
2021/05/31 02:33:03;;;;;;;0.30;0.20;;;;;;;10.02;93.79;100856.59;5046666;28;20456;-50
2021/05/31 02:35:33;;;;;;;0.30;0.20;;;;;;;9.88;94.11;100861.28;5046985;28;20847;-50
2021/05/31 02:38:02;;;;;;;0.30;0.20;;;;;;;9.94;93.37;100865.59;5045562;28;20451;-50
2021/05/31 02:40:30;;;;;;;0.30;0.20;;;;;;;10.04;92.42;100856.59;5046160;28;20508;-50
2021/05/31 02:43:03;;;;;;;0.30;0.20;;;;;;;9.83;93.05;100857.81;5040804;28;20447;-50
2021/05/31 02:45:30;;;;;;;0.30;0.20;;;;;;;9.48;94.77;100859.25;5039273;28;20444;-50
2021/05/31 02:47:58;;;;;;;0.40;0.30;;;;;;;9.59;95.48;100848.44;5044203;28;20515;-50
2021/05/31 02:50:29;;;;;;;0.30;0.20;;;;;;;9.40;95.09;100858.47;5034649;28;20852;-50
2021/05/31 02:52:56;;;;;;;0.30;0.20;;;;;;;9.44;95.43;100853.97;5042281;28;20501;-50
2021/05/31 02:55:27;;;;;;;0.30;0.20;;;;;;;9.69;94.44;100860.69;5045844;28;20541;-51
2021/05/31 02:57:54;;;;;;;0.30;0.20;;;;;;;9.51;94.42;100850.34;5025277;28;20456;-51
2021/05/31 03:00:23;;;;;;;0.30;0.20;;;;;;;9.27;94.34;100851.59;5045763;28;20448;-52
2021/05/31 03:02:50;;;;;;;0.30;0.20;;;;;;;9.29;95.24;100852.44;5044239;28;20446;-50
2021/05/31 03:05:25;;;;;;;0.30;0.20;;;;;;;9.09;96.12;100855.38;5038950;28;20443;-50
2021/05/31 03:07:52;;;;;;;0.30;0.20;;;;;;;9.13;96.76;100853.56;5038987;28;20455;-50
2021/05/31 03:10:20;;;;;;;0.30;0.20;;;;;;;9.17;96.88;100857.91;5024646;28;20450;-51
2021/05/31 03:12:47;;;;;;;0.30;0.20;;;;;;;9.28;95.18;100863.06;5038938;28;20539;-51
2021/05/31 03:15:16;;;;;;;0.30;0.20;;;;;;;8.86;97.45;100854.78;5044759;28;20641;-50
2021/05/31 03:17:45;;;;;;;1.13;1.13;;;;;;;9.06;96.14;100862.50;5035744;28;21039;-51
2021/05/31 03:20:14;;;;;;;0.30;0.20;;;;;;;9.04;96.84;100848.34;5040862;28;20948;-51
2021/05/31 03:22:41;;;;;;;0.30;0.20;;;;;;;9.11;97.52;100853.56;5038543;28;20482;-50
2021/05/31 03:25:09;;;;;;;0.30;0.20;;;;;;;9.05;97.68;100861.63;5043755;28;20506;-51
2021/05/31 03:27:36;;;;;;;0.30;0.20;;;;;;;9.10;98.03;100853.59;5045249;28;20458;-51
2021/05/31 03:30:05;;;;;;;0.30;0.20;;;;;;;9.15;97.96;100855.28;5039587;28;20500;-50
2021/05/31 03:32:31;;;;;;;0.30;0.20;;;;;;;9.39;97.13;100853.19;5038210;28;20858;-48
2021/05/31 03:34:58;;;;;;;0.30;0.20;;;;;;;9.15;97.67;100857.06;5043287;28;20480;-48
2021/05/31 03:37:25;;;;;;;0.30;0.20;;;;;;;9.04;98.63;100851.88;5045496;28;20446;-48
2021/05/31 03:39:51;;;;;;;0.30;0.20;;;;;;;9.29;96.97;100857.75;5041091;28;21036;-48
2021/05/31 03:42:18;;;;;;;0.30;0.20;;;;;;;9.17;97.22;100850.81;5038996;28;20941;-48
2021/05/31 03:44:44;;;;;;;0.30;0.20;;;;;;;9.11;98.59;100858.88;5043077;28;20497;-48
2021/05/31 03:47:11;;;;;;;0.30;0.20;;;;;;;9.26;97.95;100860.44;5045039;28;20500;-48
2021/05/31 03:49:38;;;;;;;0.30;0.20;;;;;;;9.14;97.92;100853.53;5031777;28;20480;-48
2021/05/31 03:52:05;;;;;;;0.40;0.30;;;;;;;9.11;97.41;100858.88;5045306;28;20502;-48
2021/05/31 03:54:32;;;;;;;0.30;0.20;;;;;;;8.90;98.40;100862.66;5042161;28;20453;-48
2021/05/31 03:56:58;;;;;;;0.30;0.20;;;;;;;8.89;99.03;100873.31;5027151;28;20456;-48
2021/05/31 03:59:25;;;;;;;0.30;0.20;;;;;;;9.07;98.32;100874.88;5042767;28;20509;-48
2021/05/31 04:01:52;;;;;;;0.77;0.77;;;;;;;8.93;99.22;100875.03;5038240;28;20447;-48
2021/05/31 04:04:20;;;;;;;0.30;0.20;;;;;;;9.08;98.93;100868.66;5040526;28;20593;-48
2021/05/31 04:12:00;;;;;;;1.57;1.43;;;;;;;9.15;98.03;100860.59;5043970;28;20458;-48
2021/05/31 04:14:27;;;;;;;0.30;0.20;;;;;;;9.32;97.94;100864.78;5045098;28;20525;-48
2021/05/31 04:16:55;;;;;;;0.30;0.20;;;;;;;9.46;97.52;100863.69;5039555;28;20490;-49
2021/05/31 04:19:25;;;;;;;0.30;0.20;;;;;;;9.25;98.83;100863.13;5029217;28;20510;-48
2021/05/31 04:21:53;;;;;;;0.30;0.20;;;;;;;9.24;99.06;100864.03;5043355;28;20482;-48
2021/05/31 04:24:20;;;;;;;0.30;0.20;;;;;;;9.30;99.10;100861.28;5045656;28;20458;-47
2021/05/31 04:26:47;;;;;;;0.40;0.30;;;;;;;9.50;97.83;100872.50;5044314;28;20451;-48
2021/05/31 04:29:15;;;;;;;0.30;0.20;;;;;;;9.28;99.51;100869.25;5042697;28;20475;-48
2021/05/31 04:31:43;;;;;;;0.30;0.20;;;;;;;10.38;95.10;100870.16;5046786;28;20921;-47
2021/05/31 04:34:11;;;;;;;0.30;0.20;;;;;;;11.20;90.01;100867.63;5049250;28;20532;-49
2021/05/31 04:36:39;;;;;;;0.30;0.20;;;;;;;11.90;85.04;100867.78;5044454;28;20517;-48
2021/05/31 04:39:07;;;;;;;0.30;0.20;;;;;;;12.54;81.60;100872.34;5041886;28;20537;-48
2021/05/31 04:41:36;;;;;;;0.30;0.20;;;;;;;13.00;78.49;100873.69;5046251;28;20497;-48
2021/05/31 04:44:03;;;;;;;0.30;0.20;;;;;;;13.24;77.19;100877.47;5049089;28;20452;-48
2021/05/31 04:46:29;;;;;;;0.30;0.20;;;;;;;13.62;75.81;100870.97;5045456;28;20470;-48
2021/05/31 04:48:56;;;;;;;0.30;0.20;;;;;;;14.11;73.94;100877.34;5038909;28;20479;-49
2021/05/31 04:51:24;;;;;;;0.30;0.20;;;;;;;13.93;73.90;100878.84;5046534;28;20504;-50
2021/05/31 04:53:53;;;;;;;0.40;0.20;;;;;;;14.11;73.25;100877.34;5041473;28;20505;-50
2021/05/31 04:56:19;;;;;;;0.30;0.20;;;;;;;14.32;72.56;100878.44;5037879;28;21005;-50
2021/05/31 04:58:46;;;;;;;0.30;0.20;;;;;;;14.50;72.02;100884.03;5046344;28;20517;-50
2021/05/31 05:01:12;;;;;;;0.30;0.20;;;;;;;14.69;70.53;100886.09;5047076;28;20482;-50
2021/05/31 05:03:39;;;;;;;0.40;0.20;;;;;;;14.85;70.72;100879.25;5041038;28;20906;-49
2021/05/31 05:06:10;;;;;;;0.30;0.20;;;;;;;14.75;71.28;100889.41;5043061;28;20530;-50
2021/05/31 05:08:37;;;;;;;0.40;0.20;;;;;;;14.44;71.78;100888.75;5048472;28;20517;-49
2021/05/31 05:11:03;;;;;;;0.30;0.20;;;;;;;15.00;70.20;100878.66;5047645;28;20446;-50
2021/05/31 05:13:30;;;;;;;0.30;0.20;;;;;;;15.05;70.55;100886.53;5041406;28;20509;-50
2021/05/31 05:15:56;;;;;;;0.30;0.20;;;;;;;15.55;68.84;100881.03;5041967;28;20518;-49
2021/05/31 05:18:23;;;;;;;0.30;0.20;;;;;;;15.24;69.20;100878.69;5037017;28;20471;-50
2021/05/31 05:20:50;;;;;;;0.30;0.20;;;;;;;15.46;69.20;100874.22;5047060;28;20508;-50
2021/05/31 05:23:16;;;;;;;0.40;0.30;;;;;;;15.80;67.79;100879.16;5041592;28;20512;-50
2021/05/31 05:25:52;;;;;;;0.40;0.30;;;;;;;15.90;67.03;100866.25;5041178;28;20474;-50
2021/05/31 05:28:19;;;;;;;0.40;0.20;;;;;;;15.88;67.96;100878.81;5047960;28;20849;-50
2021/05/31 05:30:49;;;;;;;0.40;0.20;;;;;;;15.58;69.16;100876.41;5047571;28;20451;-50
2021/05/31 05:33:16;;;;;;;0.40;0.20;;;;;;;15.83;69.01;100870.97;5042143;28;20446;-50
2021/05/31 05:35:49;;;;;;;0.40;0.20;;;;;;;16.37;67.19;100871.41;5040729;28;20491;-50
2021/05/31 05:39:16;;;;;;;1.33;0.77;;;;;;;16.56;66.41;100865.16;5045393;28;20517;-50
2021/05/31 05:48:57;;;;;;;0.40;0.20;;;;;;;16.62;67.34;100864.03;5037165;28;20474;-50
2021/05/31 05:51:24;;;;;;;0.40;0.20;;;;;;;16.71;67.82;100852.03;5044991;28;20450;-50
2021/05/31 05:53:51;;;;;;;0.40;0.20;;;;;;;17.44;65.58;100859.38;5040226;28;20477;-50
2021/05/31 05:56:20;;;;;;;0.40;0.20;;;;;;;17.41;65.37;100868.47;5035230;28;20546;-50
2021/05/31 05:58:48;;;;;;;0.40;0.20;;;;;;;17.57;64.56;100865.06;5046102;28;20849;-50
2021/05/31 06:01:15;;;;;;;0.40;0.30;;;;;;;17.77;62.74;100868.53;5046232;28;20451;-50
2021/05/31 06:03:43;;;;;;;3.27;0.73;;;;;;;17.99;62.31;100873.72;5040135;28;20450;-50
2021/05/31 06:06:09;;;;;;;0.40;0.20;;;;;;;17.64;63.50;100869.16;5039082;28;20502;-50
2021/05/31 06:08:36;;;;;;;0.50;0.37;;;;;;;18.10;62.48;100865.13;5046879;28;20893;-50
2021/05/31 06:11:04;;;;;;;0.40;0.20;;;;;;;18.20;61.46;100869.06;5046905;28;20496;-50
2021/05/31 06:13:31;;;;;;;1.20;1.13;;;;;;;18.22;60.31;100872.56;5040760;28;20450;-50
2021/05/31 06:16:01;;;;;;;0.40;0.20;;;;;;;18.03;61.66;100861.84;5039548;28;20827;-50
2021/05/31 06:18:29;;;;;;;0.40;0.30;;;;;;;18.27;60.53;100865.13;5041711;28;21049;-50
2021/05/31 06:20:56;;;;;;;0.57;0.50;;;;;;;18.55;60.93;100866.41;5039705;28;21174;-50
2021/05/31 06:23:23;;;;;;;0.63;0.63;;;;;;;18.62;59.89;100874.06;5045004;28;20969;-50
2021/05/31 06:25:50;;;;;;;1.53;1.43;;;;;;;18.86;58.11;100858.47;5046276;28;20447;-51
2021/05/31 06:28:17;;;;;;;0.40;0.30;;;;;;;18.87;59.28;100862.03;5042067;28;20486;-50
2021/05/31 06:30:44;;;;;;;0.40;0.20;;;;;;;18.68;61.44;100859.44;5040398;28;20483;-50
2021/05/31 06:33:11;;;;;;;0.40;0.20;;;;;;;18.46;61.09;100848.88;5043943;28;20832;-50
2021/05/31 06:35:38;;;;;;;0.50;0.30;;;;;;;18.69;59.60;100838.78;5046510;28;20494;-50
2021/05/31 06:38:05;;;;;;;1.27;1.27;;;;;;;18.68;58.91;100853.19;5042071;28;20512;-50
2021/05/31 06:40:32;;;;;;;0.50;0.40;;;;;;;18.36;60.77;100858.38;5039750;28;20447;-50
2021/05/31 06:42:59;;;;;;;0.40;0.20;;;;;;;18.76;58.07;100851.81;5043484;28;20452;-50
2021/05/31 06:45:29;;;;;;;0.40;0.30;;;;;;;19.10;57.08;100844.63;5045919;28;20517;-50
2021/05/31 06:47:58;;;;;;;0.40;0.20;;;;;;;19.59;56.42;100847.28;5027511;28;20457;-50
2021/05/31 06:50:28;;;;;;;0.43;0.30;;;;;;;19.66;55.67;100851.38;5033105;28;20442;-51
2021/05/31 06:52:56;;;;;;;0.40;0.20;;;;;;;19.52;55.07;100854.81;5042104;28;20522;-51
2021/05/31 06:55:25;;;;;;;0.50;0.33;;;;;;;19.86;52.50;100847.50;5044647;28;20455;-50
2021/05/31 06:57:52;;;;;;;0.40;0.30;;;;;;;19.36;54.24;100845.88;5025233;28;20460;-51
2021/05/31 07:00:23;;;;;;;0.90;0.80;;;;;;;20.56;51.09;100848.75;5045723;28;20502;-50
2021/05/31 07:02:50;;;;;;;0.50;0.40;;;;;;;20.18;50.87;100846.50;5044173;28;20447;-50
2021/05/31 07:05:17;;;;;;;0.40;0.20;;;;;;;19.54;54.85;100847.50;5038855;28;20505;-50
2021/05/31 07:07:44;;;;;;;1.13;0.60;;;;;;;20.20;54.78;100854.50;5040100;28;20439;-51
2021/05/31 07:10:14;;;;;;;0.40;0.20;;;;;;;19.76;49.52;100844.50;5045707;28;20451;-50
2021/05/31 07:12:41;;;;;;;0.50;0.40;;;;;;;20.36;47.78;100847.22;5044937;28;20559;-51
2021/05/31 07:15:11;;;;;;;0.40;0.20;;;;;;;20.02;48.18;100835.75;5039867;28;20520;-51
2021/05/31 07:17:39;;;;;;;0.40;0.20;;;;;;;19.80;47.82;100836.13;5038411;28;20593;-50
2021/05/31 07:20:09;;;;;;;0.40;0.20;;;;;;;20.20;47.42;100841.88;5044968;28;20468;-50
2021/05/31 07:22:37;;;;;;;0.40;0.20;;;;;;;19.99;47.76;100837.75;5044156;28;20458;-50
2021/05/31 07:25:06;;;;;;;0.40;0.20;;;;;;;20.01;46.38;100841.22;5039758;28;20508;-50
2021/05/31 07:27:33;;;;;;;0.40;0.30;;;;;;;19.91;45.80;100840.91;5038316;28;20443;-51
2021/05/31 07:30:00;;;;;;;0.40;0.20;;;;;;;20.22;46.53;100837.25;5042617;28;20473;-50
2021/05/31 07:32:27;;;;;;;0.40;0.20;;;;;;;20.18;47.10;100833.00;5045127;28;20467;-50
2021/05/31 07:34:53;;;;;;;0.40;0.30;;;;;;;20.20;45.33;100831.09;5040115;28;20517;-51
2021/05/31 07:37:20;;;;;;;0.40;0.20;;;;;;;19.50;45.98;100832.47;5038501;28;20836;-50
2021/05/31 07:39:47;;;;;;;1.00;1.00;;;;;;;19.67;47.88;100826.13;5043933;28;20530;-50
2021/05/31 07:42:14;;;;;;;0.40;0.20;;;;;;;20.32;45.78;100827.66;5045453;28;20474;-51
2021/05/31 07:44:40;;;;;;;0.40;0.30;;;;;;;20.32;44.62;100822.25;5040668;28;20560;-51
2021/05/31 07:47:07;;;;;;;0.60;0.60;;;;;;;20.17;44.17;100831.28;5035529;28;20820;-50
2021/05/31 07:49:34;;;;;;;3.13;1.70;;;;;;;20.43;43.04;100828.88;5019258;28;20501;-50
2021/05/31 07:54:57;;;;;;;0.40;0.20;;;;;;;20.24;43.33;100829.94;5040455;28;20462;-50
2021/05/31 07:57:25;;;;;;;0.40;0.20;;;;;;;20.31;43.65;100827.75;5024803;28;20527;-50
2021/05/31 07:59:53;;;;;;;0.40;0.23;;;;;;;19.86;43.74;100828.63;5045163;28;20513;-50
2021/05/31 08:02:20;;;;;;;0.40;0.20;;;;;;;20.19;44.54;100831.19;5039121;28;20526;-51
2021/05/31 08:04:47;;;;;;;0.40;0.20;;;;;;;20.31;44.62;100825.91;5038200;28;20447;-50
2021/05/31 08:07:13;;;;;;;0.40;0.20;;;;;;;20.51;44.16;100819.31;5043706;28;20452;-50
2021/05/31 08:09:40;;;;;;;0.40;0.20;;;;;;;20.34;45.51;100817.63;5044803;28;20509;-50
2021/05/31 08:12:08;;;;;;;0.40;0.20;;;;;;;19.99;44.33;100818.84;5039864;28;20475;-51
2021/05/31 08:14:35;;;;;;;0.40;0.20;;;;;;;20.66;44.75;100821.06;5037866;28;20960;-50
2021/05/31 08:17:02;;;;;;;0.40;0.20;;;;;;;20.80;44.83;100822.91;5043546;28;20583;-51
2021/05/31 08:19:31;;;;;;;0.40;0.20;;;;;;;21.11;44.61;100823.72;5039984;28;20474;-50
2021/05/31 08:21:59;;;;;;;0.40;0.20;;;;;;;20.31;43.15;100823.22;5026038;28;20526;-51
2021/05/31 08:24:26;;;;;;;0.40;0.20;;;;;;;20.05;44.49;100822.06;5035885;28;20447;-50
2021/05/31 08:26:53;;;;;;;0.40;0.20;;;;;;;20.39;44.59;100817.31;5042399;28;20881;-50
2021/05/31 08:29:21;;;;;;;0.40;0.20;;;;;;;20.92;45.16;100813.16;5044784;28;21608;-50
2021/05/31 08:31:49;;;;;;;0.40;0.20;;;;;;;20.99;43.67;100809.13;5041278;28;20823;-50
2021/05/31 08:34:16;;;;;;;0.50;0.30;;;;;;;20.84;44.18;100821.78;5038104;28;20505;-50
2021/05/31 08:36:44;;;;;;;0.40;0.20;;;;;;;20.91;42.42;100814.13;5051372;28;20490;-50
2021/05/31 08:39:12;;;;;;;0.40;0.20;;;;;;;21.16;42.54;100811.63;5037658;28;20964;-51
2021/05/31 08:41:39;;;;;;;0.40;0.20;;;;;;;20.45;42.33;100797.25;5040303;28;20462;-50
2021/05/31 08:44:07;;;;;;;0.40;0.30;;;;;;;20.35;44.36;100803.16;5044588;28;20963;-50
2021/05/31 08:46:35;;;;;;;0.40;0.20;;;;;;;20.21;43.43;100796.84;5042274;28;20477;-50
2021/05/31 08:49:03;;;;;;;0.40;0.20;;;;;;;20.36;44.43;100804.03;5032635;28;20474;-50
2021/05/31 08:51:32;;;;;;;0.40;0.20;;;;;;;20.57;45.51;100791.09;5043789;28;20446;-50
2021/05/31 08:54:00;;;;;;;0.40;0.20;;;;;;;20.39;44.49;100801.13;5038032;28;20446;-50
2021/05/31 08:56:27;;;;;;;0.40;0.20;;;;;;;20.86;42.87;100803.63;5031388;28;20542;-50
2021/05/31 08:58:53;;;;;;;0.40;0.20;;;;;;;20.29;41.04;100797.28;5037022;28;20478;-50
2021/05/31 09:01:23;;;;;;;0.40;0.20;;;;;;;20.43;42.08;100791.94;5038531;28;20452;-50
2021/05/31 09:03:54;;;;;;;0.50;0.43;;;;;;;20.30;42.06;100793.59;5038214;28;20451;-50
2021/05/31 09:06:23;;;;;;;0.53;0.53;;;;;;;20.39;41.86;100790.31;5037729;28;20459;-49
2021/05/31 09:09:00;;;;;;;0.40;0.20;;;;;;;20.51;42.17;100800.41;5043611;28;20472;-50
2021/05/31 09:11:29;;;;;;;0.40;0.20;;;;;;;20.14;42.95;100790.94;5045067;28;20446;-50
2021/05/31 09:13:57;;;;;;;0.40;0.20;;;;;;;21.16;42.08;100787.28;5044409;28;20451;-50
2021/05/31 09:16:30;;;;;;;0.40;0.20;;;;;;;20.83;42.03;100784.91;5041239;28;20494;-50
2021/05/31 09:19:02;;;;;;;0.60;0.40;;;;;;;21.07;41.25;100797.81;5033764;28;20491;-50
2021/05/31 09:21:31;;;;;;;0.40;0.20;;;;;;;20.59;41.42;100792.72;5047999;28;20447;-51
2021/05/31 09:24:10;;;;;;;0.50;0.50;;;;;;;20.54;41.75;100781.31;5046162;28;20454;-50
2021/05/31 09:26:49;;;;;;;0.50;0.40;;;;;;;21.26;41.41;100776.78;5027963;28;20454;-51
2021/05/31 09:29:17;;;;;;;0.40;0.20;;;;;;;20.78;42.26;100778.91;5040982;28;20798;-50
2021/05/31 09:31:44;;;;;;;0.40;0.20;;;;;;;21.20;42.54;100786.09;5045517;28;20991;-50
2021/05/31 09:34:13;;;;;;;1.30;1.20;;;;;;;20.78;42.42;100783.44;5047636;28;20442;-50
2021/05/31 09:36:52;;;;;;;0.40;0.20;;;;;;;21.38;40.86;100778.69;5043579;28;20482;-51
2021/05/31 09:39:30;;;;;;;0.40;0.27;;;;;;;21.20;41.13;100780.69;5040762;28;20517;-50
2021/05/31 09:42:03;;;;;;;0.40;0.20;;;;;;;21.46;41.38;100779.03;5041050;28;20854;-51
2021/05/31 09:44:30;;;;;;;0.40;0.20;;;;;;;21.16;41.34;100781.88;5040162;28;20451;-51
2021/05/31 09:46:56;;;;;;;0.40;0.30;;;;;;;21.44;41.02;100763.88;5040092;28;20501;-50
2021/05/31 09:49:26;;;;;;;1.83;1.00;;;;;;;21.31;41.00;100790.00;5023397;28;20475;-50
2021/05/31 09:52:18;;;;;;;0.40;0.20;;;;;;;20.88;42.18;100771.97;5047963;28;20495;-50
2021/05/31 09:54:49;;;;;;;0.40;0.20;;;;;;;21.42;41.87;100766.69;5046457;28;20968;-51
2021/05/31 09:57:20;;;;;;;0.40;0.20;;;;;;;21.35;42.44;100768.03;5027103;28;20487;-50
2021/05/31 10:00:00;;;;;;;0.40;0.30;;;;;;;21.53;41.83;100769.56;5047449;28;20525;-51
2021/05/31 10:10:43;;;;;;;0.40;0.30;;;;;;;20.80;43.32;100759.91;5044045;28;20455;-50
2021/05/31 10:13:10;;;;;;;0.50;0.40;;;;;;;21.38;40.93;100761.56;5047450;28;20447;-51
2021/05/31 10:15:40;;;;;;;0.40;0.20;;;;;;;21.12;42.01;100763.25;5043953;28;20450;-50
2021/05/31 10:18:15;;;;;;;0.40;0.20;;;;;;;21.23;41.09;100753.44;5039561;28;20486;-50
2021/05/31 10:20:43;;;;;;;0.40;0.20;;;;;;;21.76;41.43;100754.47;5041638;28;20448;-50
2021/05/31 10:23:11;;;;;;;0.40;0.20;;;;;;;21.50;42.38;100763.47;5045776;28;20934;-50
2021/05/31 10:25:43;;;;;;;0.40;0.30;;;;;;;21.23;41.95;100756.16;5045931;28;20512;-50
2021/05/31 10:28:10;;;;;;;0.60;0.40;;;;;;;21.57;41.92;100753.97;5039761;28;20968;-50
2021/05/31 10:30:41;;;;;;;0.40;0.20;;;;;;;21.90;41.19;100745.41;5039838;28;20538;-50
2021/05/31 10:33:19;;;;;;;2.83;1.63;;;;;;;21.74;40.42;100740.16;5040606;28;20798;-51
2021/05/31 10:35:47;;;;;;;0.60;0.60;;;;;;;22.31;39.82;100741.69;5039592;28;20451;-50
2021/05/31 10:38:19;;;;;;;0.97;0.50;;;;;;;22.57;39.48;100745.28;5043212;28;20491;-50
2021/05/31 10:40:50;;;;;;;0.40;0.20;;;;;;;21.73;40.05;100732.16;5046259;28;20459;-51
2021/05/31 10:43:19;;;;;;;0.40;0.20;;;;;;;22.05;40.61;100738.97;5044151;28;20443;-51
2021/05/31 10:45:48;;;;;;;0.40;0.20;;;;;;;21.71;40.31;100731.41;5039357;28;20998;-50
2021/05/31 10:48:19;;;;;;;0.40;0.20;;;;;;;21.48;40.87;100735.63;5040620;28;20488;-50
2021/05/31 10:50:59;;;;;;;2.10;1.40;;;;;;;21.36;40.75;100734.63;5045982;23;20899;-53
2021/05/31 10:53:32;;;;;;;0.50;0.40;;;;;;;22.11;40.08;100722.31;5033412;28;20444;-53
2021/05/31 10:56:11;;;;;;;0.40;0.20;;;;;;;22.08;39.72;100719.81;5033348;28;20435;-55
2021/05/31 10:58:45;;;;;;;0.40;0.20;;;;;;;21.77;40.16;100717.44;5033129;28;20498;-54
2021/05/31 11:01:18;;;;;;;0.40;0.20;;;;;;;22.22;39.74;100721.56;5032094;28;20460;-53
2021/05/31 11:04:03;;;;;;;0.50;0.47;;;;;;;22.43;37.76;100711.03;5020009;28;20466;-54
2021/05/31 11:06:35;;;;;;;0.40;0.20;;;;;;;21.86;37.39;100727.66;5018420;28;20925;-54
2021/05/31 11:09:09;;;;;;;0.40;0.30;;;;;;;21.85;37.83;100729.47;5023461;28;20472;-53
2021/05/31 11:11:44;;;;;;;0.40;0.20;;;;;;;22.11;38.85;100719.59;5026339;28;20455;-54
2021/05/31 11:14:12;;;;;;;0.40;0.20;;;;;;;22.31;38.13;100712.78;5024806;28;20509;-54
2021/05/31 11:17:12;;;;;;;0.40;0.20;;;;;;;22.06;38.92;100713.63;5018964;28;20455;-56
2021/05/31 11:19:40;;;;;;;0.40;0.20;;;;;;;21.49;38.80;100715.72;5013635;28;20555;-54
2021/05/31 11:22:26;;;;;;;0.50;0.30;;;;;;;21.91;37.25;100703.81;5022695;28;20542;-54
2021/05/31 11:24:55;;;;;;;1.37;1.13;;;;;;;22.04;38.67;100702.00;5019025;28;20452;-54
2021/05/31 11:27:39;;;;;;;0.40;0.20;;;;;;;22.24;37.58;100708.78;5019127;28;20448;-54
2021/05/31 11:30:10;;;;;;;0.40;0.20;;;;;;;21.98;38.53;100709.69;5022962;28;20534;-54
2021/05/31 11:32:37;;;;;;;0.60;0.50;;;;;;;21.93;38.93;100701.00;5025940;28;20449;-54
2021/05/31 11:35:08;;;;;;;0.40;0.30;;;;;;;21.54;40.03;100708.19;5022092;28;20502;-54
2021/05/31 11:37:57;;;;;;;0.60;0.60;;;;;;;21.87;39.68;100697.75;5005875;28;20475;-54
2021/05/31 11:40:29;;;;;;;0.40;0.20;;;;;;;22.30;40.18;100700.19;5018580;28;20879;-55
2021/05/31 11:43:07;;;;;;;0.40;0.20;;;;;;;21.95;38.57;100699.94;5024123;28;20448;-55
2021/05/31 11:45:37;;;;;;;0.93;0.93;;;;;;;21.94;38.31;100684.69;5025886;28;20443;-54
2021/05/31 11:48:13;;;;;;;0.50;0.30;;;;;;;22.65;37.93;100684.13;5005021;28;20433;-55
2021/05/31 11:50:43;;;;;;;0.40;0.20;;;;;;;23.15;37.88;100686.84;5016136;28;20478;-54
2021/05/31 11:53:15;;;;;;;0.40;0.20;;;;;;;22.63;38.52;100694.22;5019176;28;20448;-55
2021/05/31 11:55:42;;;;;;;0.40;0.30;;;;;;;22.04;37.96;100688.47;5006119;28;20452;-54
2021/05/31 11:58:11;;;;;;;0.40;0.30;;;;;;;22.32;38.77;100691.97;5024950;28;20533;-54
2021/05/31 12:00:42;;;;;;;1.27;1.17;;;;;;;22.44;38.29;100678.41;5020053;28;20850;-54
2021/05/31 12:03:22;;;;;;;0.40;0.20;;;;;;;22.16;38.34;100678.66;5018277;28;20506;-54